Lille-Lesquin Airport

Airport
ICAO code: 
LFQQ
IATA Code: 
LIL
Summary
ICAO Region: 
EUR
Territory: 
Location: 
, Nord-Pas-de-Calais
Serving: 
Lille
Elevation: 
157 ft
Coordinates: 
Aerial View: 
50° 33' 42.991" N, 3° 5' 21.998" E
Metar
Observation
LFQQ 212230Z AUTO 26005KT 9999 OVC021 05/02 Q1036 NOSIG
Station
Lille
Date/Time
2022-01-21 22:30:00
Wind direction
260°
Wind speed
05 kts
Lowest cloud amount
overcast
Temperature
5°C
Dew point
2°C
Humidity
80%
QNH
1036 hPa
Weather condition
n/a

Runways

Designator Length Width Surface Rops
2/20 1580 30 ASP Yes/Yes
8/26 2825 45 ASP Yes/Yes
Airport map: 
Aerial View: 

SKYbrary Partners:

Safety knowledge contributed by: